sensor_id;sensor_type;location;lat;lon;timestamp;P1;durP1;ratioP1;P2;durP2;ratioP2
71320;SDS011;59118;54.322;18.576;2023-02-28T00:01:21;79.47;;;28.88;;
71320;SDS011;59118;54.322;18.576;2023-02-28T00:03:48;77.53;;;29.33;;
71320;SDS011;59118;54.322;18.576;2023-02-28T00:06:15;79.60;;;27.30;;
71320;SDS011;59118;54.322;18.576;2023-02-28T00:08:41;69.77;;;26.93;;
71320;SDS011;59118;54.322;18.576;2023-02-28T00:11:09;77.22;;;26.80;;
71320;SDS011;59118;54.322;18.576;2023-02-28T00:13:38;72.35;;;26.90;;
71320;SDS011;59118;54.322;18.576;2023-02-28T00:16:07;71.82;;;24.33;;
71320;SDS011;59118;54.322;18.576;2023-02-28T00:18:36;60.38;;;21.95;;
71320;SDS011;59118;54.322;18.576;2023-02-28T00:21:03;69.33;;;23.13;;
71320;SDS011;59118;54.322;18.576;2023-02-28T00:23:30;59.15;;;21.73;;
71320;SDS011;59118;54.322;18.576;2023-02-28T00:25:57;60.63;;;20.75;;
71320;SDS011;59118;54.322;18.576;2023-02-28T00:28:24;57.33;;;20.45;;
71320;SDS011;59118;54.322;18.576;2023-02-28T00:30:50;60.47;;;21.92;;
71320;SDS011;59118;54.322;18.576;2023-02-28T00:33:17;61.47;;;22.47;;
71320;SDS011;59118;54.322;18.576;2023-02-28T00:35:44;59.03;;;22.52;;
71320;SDS011;59118;54.322;18.576;2023-02-28T00:38:13;55.10;;;21.50;;
71320;SDS011;59118;54.322;18.576;2023-02-28T00:40:39;63.67;;;23.38;;
71320;SDS011;59118;54.322;18.576;2023-02-28T00:43:06;62.95;;;23.85;;
71320;SDS011;59118;54.322;18.576;2023-02-28T00:45:33;59.93;;;22.30;;
71320;SDS011;59118;54.322;18.576;2023-02-28T00:47:59;73.32;;;23.15;;
71320;SDS011;59118;54.322;18.576;2023-02-28T00:50:26;57.05;;;21.77;;
71320;SDS011;59118;54.322;18.576;2023-02-28T00:52:53;59.97;;;20.98;;
71320;SDS011;59118;54.322;18.576;2023-02-28T00:55:19;62.03;;;21.90;;
71320;SDS011;59118;54.322;18.576;2023-02-28T00:57:46;61.50;;;22.33;;
71320;SDS011;59118;54.322;18.576;2023-02-28T01:00:12;62.83;;;22.70;;
71320;SDS011;59118;54.322;18.576;2023-02-28T01:02:39;60.70;;;21.65;;
71320;SDS011;59118;54.322;18.576;2023-02-28T01:05:06;58.45;;;20.33;;
71320;SDS011;59118;54.322;18.576;2023-02-28T01:07:33;64.22;;;22.58;;
71320;SDS011;59118;54.322;18.576;2023-02-28T01:10:00;69.70;;;22.80;;
71320;SDS011;59118;54.322;18.576;2023-02-28T01:12:26;67.78;;;23.95;;
71320;SDS011;59118;54.322;18.576;2023-02-28T01:14:56;71.68;;;24.13;;
71320;SDS011;59118;54.322;18.576;2023-02-28T01:17:22;79.25;;;26.35;;
71320;SDS011;59118;54.322;18.576;2023-02-28T01:19:49;76.38;;;26.73;;
71320;SDS011;59118;54.322;18.576;2023-02-28T01:22:15;66.23;;;23.67;;
71320;SDS011;59118;54.322;18.576;2023-02-28T01:24:42;71.13;;;24.88;;
71320;SDS011;59118;54.322;18.576;2023-02-28T01:27:08;74.85;;;24.20;;
71320;SDS011;59118;54.322;18.576;2023-02-28T01:29:35;76.15;;;25.13;;
71320;SDS011;59118;54.322;18.576;2023-02-28T01:32:02;75.65;;;26.40;;
71320;SDS011;59118;54.322;18.576;2023-02-28T01:34:28;74.10;;;26.00;;
71320;SDS011;59118;54.322;18.576;2023-02-28T01:36:55;72.00;;;24.80;;
71320;SDS011;59118;54.322;18.576;2023-02-28T01:39:25;78.07;;;25.33;;
71320;SDS011;59118;54.322;18.576;2023-02-28T01:41:52;74.07;;;25.05;;
71320;SDS011;59118;54.322;18.576;2023-02-28T01:47:21;63.47;;;23.37;;
71320;SDS011;59118;54.322;18.576;2023-02-28T01:49:49;63.58;;;22.80;;
71320;SDS011;59118;54.322;18.576;2023-02-28T01:52:17;70.50;;;26.10;;
71320;SDS011;59118;54.322;18.576;2023-02-28T01:54:45;64.05;;;23.42;;
71320;SDS011;59118;54.322;18.576;2023-02-28T01:57:16;71.72;;;24.80;;
71320;SDS011;59118;54.322;18.576;2023-02-28T01:59:49;65.37;;;23.60;;
71320;SDS011;59118;54.322;18.576;2023-02-28T02:02:20;64.70;;;22.30;;
71320;SDS011;59118;54.322;18.576;2023-02-28T02:04:53;62.85;;;23.33;;
71320;SDS011;59118;54.322;18.576;2023-02-28T02:07:22;60.53;;;22.85;;
71320;SDS011;59118;54.322;18.576;2023-02-28T02:09:49;58.58;;;20.70;;
71320;SDS011;59118;54.322;18.576;2023-02-28T02:12:25;62.03;;;21.53;;
71320;SDS011;59118;54.322;18.576;2023-02-28T02:15:02;64.20;;;21.13;;
71320;SDS011;59118;54.322;18.576;2023-02-28T02:17:42;58.55;;;20.38;;
71320;SDS011;59118;54.322;18.576;2023-02-28T02:23:02;54.85;;;19.50;;
71320;SDS011;59118;54.322;18.576;2023-02-28T02:32:17;54.33;;;19.10;;
71320;SDS011;59118;54.322;18.576;2023-02-28T02:43:01;50.15;;;16.98;;
71320;SDS011;59118;54.322;18.576;2023-02-28T02:45:39;37.50;;;14.30;;
71320;SDS011;59118;54.322;18.576;2023-02-28T02:48:09;44.03;;;15.52;;
71320;SDS011;59118;54.322;18.576;2023-02-28T02:50:41;42.22;;;15.25;;
71320;SDS011;59118;54.322;18.576;2023-02-28T02:53:10;41.57;;;14.43;;
71320;SDS011;59118;54.322;18.576;2023-02-28T02:55:39;43.00;;;15.43;;
71320;SDS011;59118;54.322;18.576;2023-02-28T02:58:08;43.13;;;15.10;;
71320;SDS011;59118;54.322;18.576;2023-02-28T03:00:41;43.95;;;14.45;;
71320;SDS011;59118;54.322;18.576;2023-02-28T03:03:09;35.90;;;12.68;;
71320;SDS011;59118;54.322;18.576;2023-02-28T03:05:56;31.50;;;11.80;;
71320;SDS011;59118;54.322;18.576;2023-02-28T03:08:24;38.75;;;14.38;;
71320;SDS011;59118;54.322;18.576;2023-02-28T03:10:52;35.65;;;13.18;;
71320;SDS011;59118;54.322;18.576;2023-02-28T03:19:33;41.00;;;13.37;;
71320;SDS011;59118;54.322;18.576;2023-02-28T03:28:19;38.97;;;13.52;;
71320;SDS011;59118;54.322;18.576;2023-02-28T03:30:54;41.22;;;13.63;;
71320;SDS011;59118;54.322;18.576;2023-02-28T03:33:33;40.17;;;13.97;;
71320;SDS011;59118;54.322;18.576;2023-02-28T03:36:05;40.45;;;13.85;;
71320;SDS011;59118;54.322;18.576;2023-02-28T03:41:19;31.60;;;12.10;;
71320;SDS011;59118;54.322;18.576;2023-02-28T03:44:07;26.10;;;9.00;;
71320;SDS011;59118;54.322;18.576;2023-02-28T03:50:03;39.53;;;13.65;;
71320;SDS011;59118;54.322;18.576;2023-02-28T03:52:35;42.80;;;13.88;;
71320;SDS011;59118;54.322;18.576;2023-02-28T03:55:07;39.42;;;12.85;;
71320;SDS011;59118;54.322;18.576;2023-02-28T04:00:32;30.23;;;10.60;;
71320;SDS011;59118;54.322;18.576;2023-02-28T04:03:04;33.88;;;10.77;;
71320;SDS011;59118;54.322;18.576;2023-02-28T04:05:31;32.50;;;11.52;;
71320;SDS011;59118;54.322;18.576;2023-02-28T04:08:05;32.97;;;11.27;;
71320;SDS011;59118;54.322;18.576;2023-02-28T04:10:33;31.27;;;10.20;;
71320;SDS011;59118;54.322;18.576;2023-02-28T04:12:59;29.13;;;10.97;;
71320;SDS011;59118;54.322;18.576;2023-02-28T04:15:26;31.02;;;9.95;;
71320;SDS011;59118;54.322;18.576;2023-02-28T04:17:53;27.63;;;9.73;;
71320;SDS011;59118;54.322;18.576;2023-02-28T04:20:20;32.25;;;10.13;;
71320;SDS011;59118;54.322;18.576;2023-02-28T04:22:46;29.10;;;10.20;;
71320;SDS011;59118;54.322;18.576;2023-02-28T04:25:13;26.13;;;9.83;;
71320;SDS011;59118;54.322;18.576;2023-02-28T04:27:39;24.75;;;9.15;;
71320;SDS011;59118;54.322;18.576;2023-02-28T04:30:06;29.02;;;10.00;;
71320;SDS011;59118;54.322;18.576;2023-02-28T04:32:33;26.20;;;9.13;;
71320;SDS011;59118;54.322;18.576;2023-02-28T04:34:59;23.20;;;8.60;;
71320;SDS011;59118;54.322;18.576;2023-02-28T04:37:26;24.40;;;8.97;;
71320;SDS011;59118;54.322;18.576;2023-02-28T04:39:55;25.48;;;9.05;;
71320;SDS011;59118;54.322;18.576;2023-02-28T04:42:21;23.48;;;8.32;;
71320;SDS011;59118;54.322;18.576;2023-02-28T04:44:48;25.05;;;8.65;;
71320;SDS011;59118;54.322;18.576;2023-02-28T04:47:14;21.83;;;8.60;;
71320;SDS011;59118;54.322;18.576;2023-02-28T04:49:41;24.83;;;8.03;;
71320;SDS011;59118;54.322;18.576;2023-02-28T04:52:07;30.55;;;9.70;;
71320;SDS011;59118;54.322;18.576;2023-02-28T04:54:36;22.85;;;8.40;;
71320;SDS011;59118;54.322;18.576;2023-02-28T04:57:04;26.48;;;9.00;;
71320;SDS011;59118;54.322;18.576;2023-02-28T04:59:32;28.73;;;8.35;;
71320;SDS011;59118;54.322;18.576;2023-02-28T05:01:59;22.23;;;7.70;;
71320;SDS011;59118;54.322;18.576;2023-02-28T05:04:25;25.17;;;8.30;;
71320;SDS011;59118;54.322;18.576;2023-02-28T05:06:52;23.25;;;8.25;;
71320;SDS011;59118;54.322;18.576;2023-02-28T05:09:19;24.35;;;8.85;;
71320;SDS011;59118;54.322;18.576;2023-02-28T05:11:51;25.92;;;8.48;;
71320;SDS011;59118;54.322;18.576;2023-02-28T05:14:42;22.97;;;7.97;;
71320;SDS011;59118;54.322;18.576;2023-02-28T05:17:10;22.40;;;8.65;;
71320;SDS011;59118;54.322;18.576;2023-02-28T05:19:37;29.10;;;8.65;;
71320;SDS011;59118;54.322;18.576;2023-02-28T05:22:03;26.00;;;8.07;;
71320;SDS011;59118;54.322;18.576;2023-02-28T05:24:30;23.52;;;8.40;;
71320;SDS011;59118;54.322;18.576;2023-02-28T05:26:56;23.33;;;8.60;;
71320;SDS011;59118;54.322;18.576;2023-02-28T05:29:23;21.38;;;7.45;;
71320;SDS011;59118;54.322;18.576;2023-02-28T05:31:49;22.30;;;7.75;;
71320;SDS011;59118;54.322;18.576;2023-02-28T05:34:16;25.00;;;9.07;;
71320;SDS011;59118;54.322;18.576;2023-02-28T05:36:43;24.88;;;8.38;;
71320;SDS011;59118;54.322;18.576;2023-02-28T05:39:10;26.40;;;8.60;;
71320;SDS011;59118;54.322;18.576;2023-02-28T05:41:40;25.00;;;8.52;;
71320;SDS011;59118;54.322;18.576;2023-02-28T05:44:07;20.83;;;8.00;;
71320;SDS011;59118;54.322;18.576;2023-02-28T05:46:34;22.70;;;8.45;;
71320;SDS011;59118;54.322;18.576;2023-02-28T05:49:00;21.52;;;7.53;;
71320;SDS011;59118;54.322;18.576;2023-02-28T05:51:27;21.60;;;7.40;;
71320;SDS011;59118;54.322;18.576;2023-02-28T05:53:58;23.58;;;7.97;;
71320;SDS011;59118;54.322;18.576;2023-02-28T05:56:25;24.30;;;8.02;;
71320;SDS011;59118;54.322;18.576;2023-02-28T05:58:51;22.98;;;8.50;;
71320;SDS011;59118;54.322;18.576;2023-02-28T06:01:19;23.27;;;7.75;;
71320;SDS011;59118;54.322;18.576;2023-02-28T06:03:47;19.60;;;6.60;;
71320;SDS011;59118;54.322;18.576;2023-02-28T06:06:14;17.10;;;6.72;;
71320;SDS011;59118;54.322;18.576;2023-02-28T06:08:40;20.85;;;6.47;;
71320;SDS011;59118;54.322;18.576;2023-02-28T06:11:10;22.70;;;7.00;;
71320;SDS011;59118;54.322;18.576;2023-02-28T06:13:37;21.58;;;6.85;;
71320;SDS011;59118;54.322;18.576;2023-02-28T06:16:04;18.87;;;7.30;;
71320;SDS011;59118;54.322;18.576;2023-02-28T06:18:31;20.48;;;6.40;;
71320;SDS011;59118;54.322;18.576;2023-02-28T06:20:57;20.80;;;7.03;;
71320;SDS011;59118;54.322;18.576;2023-02-28T06:23:24;21.65;;;7.25;;
71320;SDS011;59118;54.322;18.576;2023-02-28T06:25:51;19.05;;;6.55;;
71320;SDS011;59118;54.322;18.576;2023-02-28T06:28:19;18.30;;;6.53;;
71320;SDS011;59118;54.322;18.576;2023-02-28T06:30:45;19.08;;;7.38;;
71320;SDS011;59118;54.322;18.576;2023-02-28T06:33:12;19.85;;;6.10;;
71320;SDS011;59118;54.322;18.576;2023-02-28T06:35:40;16.42;;;6.40;;
71320;SDS011;59118;54.322;18.576;2023-02-28T06:38:10;16.60;;;6.22;;
71320;SDS011;59118;54.322;18.576;2023-02-28T06:40:37;16.30;;;5.43;;
71320;SDS011;59118;54.322;18.576;2023-02-28T06:43:03;15.70;;;5.53;;
71320;SDS011;59118;54.322;18.576;2023-02-28T06:45:30;14.80;;;5.72;;
71320;SDS011;59118;54.322;18.576;2023-02-28T06:47:56;18.30;;;5.90;;
71320;SDS011;59118;54.322;18.576;2023-02-28T06:50:24;17.40;;;5.82;;
71320;SDS011;59118;54.322;18.576;2023-02-28T06:52:50;14.07;;;5.67;;
71320;SDS011;59118;54.322;18.576;2023-02-28T06:55:20;13.48;;;4.85;;
71320;SDS011;59118;54.322;18.576;2023-02-28T06:57:46;21.55;;;6.18;;
71320;SDS011;59118;54.322;18.576;2023-02-28T07:00:13;15.48;;;5.30;;
71320;SDS011;59118;54.322;18.576;2023-02-28T07:02:40;13.55;;;4.68;;
71320;SDS011;59118;54.322;18.576;2023-02-28T07:05:06;15.53;;;5.27;;
71320;SDS011;59118;54.322;18.576;2023-02-28T07:07:33;16.73;;;5.55;;
71320;SDS011;59118;54.322;18.576;2023-02-28T07:10:02;15.77;;;5.53;;
71320;SDS011;59118;54.322;18.576;2023-02-28T07:12:29;13.98;;;5.47;;
71320;SDS011;59118;54.322;18.576;2023-02-28T07:14:55;16.20;;;5.45;;
71320;SDS011;59118;54.322;18.576;2023-02-28T07:17:22;16.80;;;5.70;;
71320;SDS011;59118;54.322;18.576;2023-02-28T07:19:49;15.23;;;5.45;;
71320;SDS011;59118;54.322;18.576;2023-02-28T07:22:16;15.38;;;5.25;;
71320;SDS011;59118;54.322;18.576;2023-02-28T07:24:42;16.60;;;6.38;;
71320;SDS011;59118;54.322;18.576;2023-02-28T07:27:09;14.38;;;5.35;;
71320;SDS011;59118;54.322;18.576;2023-02-28T07:29:36;17.33;;;5.63;;
71320;SDS011;59118;54.322;18.576;2023-02-28T07:32:03;16.48;;;5.97;;
71320;SDS011;59118;54.322;18.576;2023-02-28T07:34:30;15.82;;;6.30;;
71320;SDS011;59118;54.322;18.576;2023-02-28T07:36:56;18.35;;;5.65;;
71320;SDS011;59118;54.322;18.576;2023-02-28T07:39:23;14.95;;;5.82;;
71320;SDS011;59118;54.322;18.576;2023-02-28T07:41:50;15.77;;;5.40;;
71320;SDS011;59118;54.322;18.576;2023-02-28T07:44:17;14.13;;;5.90;;
71320;SDS011;59118;54.322;18.576;2023-02-28T07:46:43;15.85;;;5.28;;
71320;SDS011;59118;54.322;18.576;2023-02-28T07:49:10;15.63;;;6.10;;
71320;SDS011;59118;54.322;18.576;2023-02-28T07:51:36;13.50;;;5.10;;
71320;SDS011;59118;54.322;18.576;2023-02-28T07:54:03;11.83;;;4.57;;
71320;SDS011;59118;54.322;18.576;2023-02-28T07:56:30;18.60;;;5.55;;
71320;SDS011;59118;54.322;18.576;2023-02-28T07:58:57;15.57;;;5.47;;
71320;SDS011;59118;54.322;18.576;2023-02-28T08:01:24;16.02;;;5.70;;
71320;SDS011;59118;54.322;18.576;2023-02-28T08:03:50;16.10;;;5.82;;
71320;SDS011;59118;54.322;18.576;2023-02-28T08:06:19;15.83;;;5.80;;
71320;SDS011;59118;54.322;18.576;2023-02-28T08:08:48;16.30;;;5.88;;
71320;SDS011;59118;54.322;18.576;2023-02-28T08:11:15;19.38;;;6.22;;
71320;SDS011;59118;54.322;18.576;2023-02-28T08:13:43;16.35;;;5.80;;
71320;SDS011;59118;54.322;18.576;2023-02-28T08:16:11;16.95;;;6.40;;
71320;SDS011;59118;54.322;18.576;2023-02-28T08:18:40;18.57;;;6.87;;
71320;SDS011;59118;54.322;18.576;2023-02-28T08:21:08;16.02;;;6.00;;
71320;SDS011;59118;54.322;18.576;2023-02-28T08:23:35;18.15;;;5.68;;
71320;SDS011;59118;54.322;18.576;2023-02-28T08:26:02;16.13;;;6.20;;
71320;SDS011;59118;54.322;18.576;2023-02-28T08:28:29;18.15;;;5.97;;
71320;SDS011;59118;54.322;18.576;2023-02-28T08:30:55;15.97;;;6.33;;
71320;SDS011;59118;54.322;18.576;2023-02-28T08:33:22;19.23;;;6.72;;
71320;SDS011;59118;54.322;18.576;2023-02-28T08:35:53;19.58;;;6.97;;
71320;SDS011;59118;54.322;18.576;2023-02-28T08:38:20;13.73;;;5.45;;
71320;SDS011;59118;54.322;18.576;2023-02-28T08:40:47;18.90;;;6.18;;
71320;SDS011;59118;54.322;18.576;2023-02-28T08:43:14;15.83;;;5.80;;
71320;SDS011;59118;54.322;18.576;2023-02-28T08:45:40;16.77;;;6.40;;
71320;SDS011;59118;54.322;18.576;2023-02-28T08:48:07;14.02;;;5.45;;
71320;SDS011;59118;54.322;18.576;2023-02-28T08:50:34;14.98;;;5.47;;
71320;SDS011;59118;54.322;18.576;2023-02-28T08:53:00;13.73;;;5.57;;
71320;SDS011;59118;54.322;18.576;2023-02-28T08:55:27;12.87;;;5.10;;
71320;SDS011;59118;54.322;18.576;2023-02-28T08:57:53;12.73;;;4.60;;
71320;SDS011;59118;54.322;18.576;2023-02-28T09:00:21;11.73;;;4.25;;
71320;SDS011;59118;54.322;18.576;2023-02-28T09:02:50;12.38;;;4.10;;
71320;SDS011;59118;54.322;18.576;2023-02-28T09:05:17;12.63;;;3.70;;
71320;SDS011;59118;54.322;18.576;2023-02-28T09:07:44;13.23;;;4.67;;
71320;SDS011;59118;54.322;18.576;2023-02-28T09:10:10;11.65;;;4.43;;
71320;SDS011;59118;54.322;18.576;2023-02-28T09:12:37;12.65;;;4.28;;
71320;SDS011;59118;54.322;18.576;2023-02-28T09:15:04;16.13;;;4.80;;
71320;SDS011;59118;54.322;18.576;2023-02-28T09:17:31;10.25;;;4.40;;
71320;SDS011;59118;54.322;18.576;2023-02-28T09:19:57;11.90;;;4.63;;
71320;SDS011;59118;54.322;18.576;2023-02-28T09:22:24;12.48;;;4.30;;
71320;SDS011;59118;54.322;18.576;2023-02-28T09:24:51;12.50;;;4.55;;
71320;SDS011;59118;54.322;18.576;2023-02-28T09:27:17;10.85;;;4.32;;
71320;SDS011;59118;54.322;18.576;2023-02-28T09:29:44;12.30;;;3.88;;
71320;SDS011;59118;54.322;18.576;2023-02-28T09:32:10;11.93;;;3.77;;
71320;SDS011;59118;54.322;18.576;2023-02-28T09:34:37;10.63;;;4.10;;
71320;SDS011;59118;54.322;18.576;2023-02-28T09:37:04;12.90;;;4.43;;
71320;SDS011;59118;54.322;18.576;2023-02-28T09:39:31;14.68;;;5.50;;
71320;SDS011;59118;54.322;18.576;2023-02-28T09:41:58;13.27;;;4.88;;
71320;SDS011;59118;54.322;18.576;2023-02-28T09:46:53;14.13;;;5.00;;
71320;SDS011;59118;54.322;18.576;2023-02-28T09:49:23;14.35;;;5.65;;
71320;SDS011;59118;54.322;18.576;2023-02-28T09:51:59;14.60;;;5.75;;
71320;SDS011;59118;54.322;18.576;2023-02-28T09:54:29;14.45;;;5.78;;
71320;SDS011;59118;54.322;18.576;2023-02-28T09:57:07;16.90;;;5.33;;
71320;SDS011;59118;54.322;18.576;2023-02-28T10:04:57;13.07;;;4.90;;
71320;SDS011;59118;54.322;18.576;2023-02-28T10:13:06;8.35;;;3.35;;
71320;SDS011;59118;54.322;18.576;2023-02-28T10:15:38;11.75;;;3.55;;
71320;SDS011;59118;54.322;18.576;2023-02-28T10:18:06;8.80;;;2.80;;
71320;SDS011;59118;54.322;18.576;2023-02-28T10:20:39;7.57;;;2.65;;
71320;SDS011;59118;54.322;18.576;2023-02-28T10:23:11;9.70;;;2.70;;
71320;SDS011;59118;54.322;18.576;2023-02-28T10:25:42;9.02;;;2.88;;
71320;SDS011;59118;54.322;18.576;2023-02-28T10:28:14;9.27;;;2.47;;
71320;SDS011;59118;54.322;18.576;2023-02-28T10:30:44;7.90;;;2.47;;
71320;SDS011;59118;54.322;18.576;2023-02-28T10:33:49;9.18;;;2.65;;
71320;SDS011;59118;54.322;18.576;2023-02-28T10:36:10;7.20;;;2.73;;
71320;SDS011;59118;54.322;18.576;2023-02-28T10:38:40;11.82;;;2.85;;
71320;SDS011;59118;54.322;18.576;2023-02-28T10:41:49;9.10;;;3.30;;
71320;SDS011;59118;54.322;18.576;2023-02-28T10:44:14;9.88;;;2.97;;
71320;SDS011;59118;54.322;18.576;2023-02-28T10:46:48;8.80;;;2.70;;
71320;SDS011;59118;54.322;18.576;2023-02-28T10:49:49;8.60;;;2.77;;
71320;SDS011;59118;54.322;18.576;2023-02-28T10:52:13;9.55;;;3.40;;
71320;SDS011;59118;54.322;18.576;2023-02-28T10:54:39;11.23;;;3.20;;
71320;SDS011;59118;54.322;18.576;2023-02-28T10:57:20;9.45;;;3.30;;
71320;SDS011;59118;54.322;18.576;2023-02-28T10:59:51;9.57;;;3.10;;
71320;SDS011;59118;54.322;18.576;2023-02-28T11:02:34;10.17;;;3.50;;
71320;SDS011;59118;54.322;18.576;2023-02-28T11:08:03;13.73;;;4.80;;
71320;SDS011;59118;54.322;18.576;2023-02-28T11:10:48;14.45;;;5.82;;
71320;SDS011;59118;54.322;18.576;2023-02-28T11:13:21;11.63;;;4.50;;
71320;SDS011;59118;54.322;18.576;2023-02-28T11:15:57;14.63;;;4.97;;
71320;SDS011;59118;54.322;18.576;2023-02-28T11:21:15;13.55;;;5.25;;
71320;SDS011;59118;54.322;18.576;2023-02-28T11:24:19;11.38;;;4.80;;
71320;SDS011;59118;54.322;18.576;2023-02-28T11:26:49;12.05;;;4.72;;
71320;SDS011;59118;54.322;18.576;2023-02-28T11:29:20;12.83;;;4.43;;
71320;SDS011;59118;54.322;18.576;2023-02-28T11:32:16;10.40;;;3.92;;
71320;SDS011;59118;54.322;18.576;2023-02-28T11:37:27;9.15;;;3.30;;
71320;SDS011;59118;54.322;18.576;2023-02-28T11:39:54;12.65;;;2.97;;
71320;SDS011;59118;54.322;18.576;2023-02-28T11:52:55;8.35;;;2.65;;
71320;SDS011;59118;54.322;18.576;2023-02-28T11:55:37;7.23;;;2.50;;
71320;SDS011;59118;54.322;18.576;2023-02-28T12:01:00;6.85;;;2.20;;
71320;SDS011;59118;54.322;18.576;2023-02-28T12:23:19;9.20;;;2.70;;
71320;SDS011;59118;54.322;18.576;2023-02-28T12:26:02;9.10;;;2.70;;
71320;SDS011;59118;54.322;18.576;2023-02-28T12:29:43;6.93;;;2.40;;
71320;SDS011;59118;54.322;18.576;2023-02-28T12:32:09;8.00;;;2.00;;
71320;SDS011;59118;54.322;18.576;2023-02-28T12:34:44;7.43;;;2.25;;
71320;SDS011;59118;54.322;18.576;2023-02-28T12:37:15;7.40;;;2.33;;
71320;SDS011;59118;54.322;18.576;2023-02-28T12:39:48;6.60;;;2.20;;
71320;SDS011;59118;54.322;18.576;2023-02-28T12:42:19;6.70;;;2.13;;
71320;SDS011;59118;54.322;18.576;2023-02-28T12:44:52;7.22;;;2.10;;
71320;SDS011;59118;54.322;18.576;2023-02-28T12:47:21;5.55;;;1.98;;
71320;SDS011;59118;54.322;18.576;2023-02-28T12:49:52;7.13;;;2.00;;
71320;SDS011;59118;54.322;18.576;2023-02-28T12:52:31;6.95;;;2.10;;
71320;SDS011;59118;54.322;18.576;2023-02-28T12:55:22;5.78;;;2.08;;
71320;SDS011;59118;54.322;18.576;2023-02-28T12:58:04;6.30;;;1.95;;
71320;SDS011;59118;54.322;18.576;2023-02-28T13:00:38;7.03;;;2.35;;
71320;SDS011;59118;54.322;18.576;2023-02-28T13:03:34;8.30;;;1.97;;
71320;SDS011;59118;54.322;18.576;2023-02-28T13:09:04;6.03;;;2.05;;
71320;SDS011;59118;54.322;18.576;2023-02-28T13:16:59;6.53;;;2.23;;
71320;SDS011;59118;54.322;18.576;2023-02-28T13:19:32;6.60;;;1.98;;
71320;SDS011;59118;54.322;18.576;2023-02-28T13:22:01;7.05;;;2.40;;
71320;SDS011;59118;54.322;18.576;2023-02-28T13:29:40;7.03;;;2.27;;
71320;SDS011;59118;54.322;18.576;2023-02-28T13:47:53;6.18;;;2.22;;
71320;SDS011;59118;54.322;18.576;2023-02-28T13:55:58;8.67;;;2.00;;
71320;SDS011;59118;54.322;18.576;2023-02-28T13:58:55;4.90;;;1.45;;
71320;SDS011;59118;54.322;18.576;2023-02-28T14:05:06;6.32;;;1.77;;
71320;SDS011;59118;54.322;18.576;2023-02-28T14:07:53;7.13;;;2.00;;
71320;SDS011;59118;54.322;18.576;2023-02-28T14:10:44;4.87;;;1.73;;
71320;SDS011;59118;54.322;18.576;2023-02-28T14:16:00;7.80;;;2.35;;
71320;SDS011;59118;54.322;18.576;2023-02-28T14:26:36;6.50;;;1.70;;
71320;SDS011;59118;54.322;18.576;2023-02-28T14:37:45;6.97;;;2.60;;
71320;SDS011;59118;54.322;18.576;2023-02-28T14:40:18;7.82;;;2.33;;
71320;SDS011;59118;54.322;18.576;2023-02-28T14:43:15;7.38;;;2.00;;
71320;SDS011;59118;54.322;18.576;2023-02-28T14:45:48;7.57;;;2.08;;
71320;SDS011;59118;54.322;18.576;2023-02-28T14:48:16;6.30;;;2.33;;
71320;SDS011;59118;54.322;18.576;2023-02-28T14:51:18;7.33;;;2.20;;
71320;SDS011;59118;54.322;18.576;2023-02-28T14:53:37;7.03;;;2.42;;
71320;SDS011;59118;54.322;18.576;2023-02-28T14:56:03;7.75;;;2.55;;
71320;SDS011;59118;54.322;18.576;2023-02-28T14:58:31;8.82;;;2.80;;
71320;SDS011;59118;54.322;18.576;2023-02-28T15:01:00;8.00;;;2.42;;
71320;SDS011;59118;54.322;18.576;2023-02-28T15:03:32;8.20;;;2.53;;
71320;SDS011;59118;54.322;18.576;2023-02-28T15:06:11;8.52;;;3.17;;
71320;SDS011;59118;54.322;18.576;2023-02-28T15:08:39;6.53;;;2.53;;
71320;SDS011;59118;54.322;18.576;2023-02-28T15:11:08;8.20;;;3.35;;
71320;SDS011;59118;54.322;18.576;2023-02-28T15:13:43;12.05;;;3.67;;
71320;SDS011;59118;54.322;18.576;2023-02-28T15:16:20;9.23;;;3.33;;
71320;SDS011;59118;54.322;18.576;2023-02-28T15:19:02;8.48;;;2.97;;
71320;SDS011;59118;54.322;18.576;2023-02-28T15:21:37;9.35;;;3.35;;
71320;SDS011;59118;54.322;18.576;2023-02-28T15:24:07;9.52;;;3.45;;
71320;SDS011;59118;54.322;18.576;2023-02-28T15:26:40;8.98;;;3.38;;
71320;SDS011;59118;54.322;18.576;2023-02-28T15:29:13;9.63;;;3.23;;
71320;SDS011;59118;54.322;18.576;2023-02-28T15:31:55;10.00;;;3.28;;
71320;SDS011;59118;54.322;18.576;2023-02-28T15:40:16;11.38;;;3.33;;
71320;SDS011;59118;54.322;18.576;2023-02-28T15:43:06;11.37;;;3.40;;
71320;SDS011;59118;54.322;18.576;2023-02-28T15:50:48;9.90;;;3.78;;
71320;SDS011;59118;54.322;18.576;2023-02-28T15:53:27;10.50;;;3.90;;
71320;SDS011;59118;54.322;18.576;2023-02-28T15:56:03;11.20;;;4.17;;
71320;SDS011;59118;54.322;18.576;2023-02-28T15:58:32;11.50;;;4.57;;
71320;SDS011;59118;54.322;18.576;2023-02-28T16:01:07;11.45;;;3.90;;
71320;SDS011;59118;54.322;18.576;2023-02-28T16:03:57;13.10;;;4.75;;
71320;SDS011;59118;54.322;18.576;2023-02-28T16:09:11;14.80;;;5.20;;
71320;SDS011;59118;54.322;18.576;2023-02-28T16:11:49;16.05;;;5.50;;
71320;SDS011;59118;54.322;18.576;2023-02-28T16:14:21;15.48;;;5.60;;
71320;SDS011;59118;54.322;18.576;2023-02-28T16:16:50;15.10;;;5.80;;
71320;SDS011;59118;54.322;18.576;2023-02-28T16:19:18;15.85;;;5.35;;
71320;SDS011;59118;54.322;18.576;2023-02-28T16:21:45;14.50;;;5.53;;
71320;SDS011;59118;54.322;18.576;2023-02-28T16:24:13;15.90;;;5.90;;
71320;SDS011;59118;54.322;18.576;2023-02-28T16:26:42;17.75;;;6.07;;
71320;SDS011;59118;54.322;18.576;2023-02-28T16:29:13;15.25;;;5.95;;
71320;SDS011;59118;54.322;18.576;2023-02-28T16:31:52;15.73;;;5.38;;
71320;SDS011;59118;54.322;18.576;2023-02-28T16:34:20;12.43;;;4.97;;
71320;SDS011;59118;54.322;18.576;2023-02-28T16:36:47;12.88;;;4.95;;
71320;SDS011;59118;54.322;18.576;2023-02-28T16:39:15;15.43;;;4.95;;
71320;SDS011;59118;54.322;18.576;2023-02-28T16:41:44;16.58;;;5.28;;
71320;SDS011;59118;54.322;18.576;2023-02-28T16:44:23;15.63;;;5.07;;
71320;SDS011;59118;54.322;18.576;2023-02-28T16:47:01;17.33;;;5.17;;
71320;SDS011;59118;54.322;18.576;2023-02-28T16:49:30;12.65;;;5.32;;
71320;SDS011;59118;54.322;18.576;2023-02-28T16:51:57;14.63;;;5.80;;
71320;SDS011;59118;54.322;18.576;2023-02-28T16:54:24;19.05;;;7.40;;
71320;SDS011;59118;54.322;18.576;2023-02-28T16:56:50;18.85;;;7.25;;
71320;SDS011;59118;54.322;18.576;2023-02-28T16:59:18;21.37;;;6.73;;
71320;SDS011;59118;54.322;18.576;2023-02-28T17:01:48;19.95;;;6.85;;
71320;SDS011;59118;54.322;18.576;2023-02-28T17:04:16;21.00;;;7.00;;
71320;SDS011;59118;54.322;18.576;2023-02-28T17:06:43;20.40;;;7.53;;
71320;SDS011;59118;54.322;18.576;2023-02-28T17:09:14;20.77;;;7.15;;
71320;SDS011;59118;54.322;18.576;2023-02-28T17:11:49;21.53;;;7.47;;
71320;SDS011;59118;54.322;18.576;2023-02-28T17:14:17;21.48;;;7.72;;
71320;SDS011;59118;54.322;18.576;2023-02-28T17:16:45;17.88;;;7.32;;
71320;SDS011;59118;54.322;18.576;2023-02-28T17:19:14;19.70;;;6.80;;
71320;SDS011;59118;54.322;18.576;2023-02-28T17:21:47;19.67;;;7.25;;
71320;SDS011;59118;54.322;18.576;2023-02-28T17:24:13;22.73;;;8.13;;
71320;SDS011;59118;54.322;18.576;2023-02-28T17:26:56;19.50;;;8.02;;
71320;SDS011;59118;54.322;18.576;2023-02-28T17:29:25;38.20;;;8.25;;